Oak Lodge, Oregon
Current Conditions -  °F | °C
As of 3:53 AM on Thursday 23 Oct 2014 (Local Time) from KPDX Reporting Station
Moderate Rain Moderate Rain  
Wind Chill: 55°   Ceiling: 4400
Heat Index: 55°   Visibility: 7mi
Dew Point: 53°   Wind: 5mph
Humidity: 93%   Direction: 140°SE
Pressure: 29.78"   Gusts: NA
Location:  45.4079°N, 122.613°W
Report Text: KPDX 231053Z 14004KT 7SM RA OVC044 13/12 A2978 RMK AO2 RAB42 SLP083 P0001 T01280117
Loading
Personal Weather Stations






























Interactive Weather Map
Tropical Storm Tracking
New forecast layout! Learn more

10-Day Weather Forecast

Advertisements
Track Severe Weather on mobile